BUCK23 YAMB-YAMB
Flight info
| Callsign | BUCK23 |
|---|---|
| Flight time | 0h 36m |
| Altitude | 41000 |
| Route | SGE |
| Aircraft | F18/M-SDGHITUY/LB1 |
Departure
| Time | 2026-04-30 11:59 |
|---|---|
| Airport | RAAF Base Amberley (YAMB) |
Arrival
| Time | 2026-04-30 12:35 |
|---|---|
| Airport | RAAF Base Amberley (YAMB) |
| Time | Latitude | Longitude | Altitude | Speed | Heading |
|---|---|---|---|---|---|
| 2026-04-30 11:51 | -27.63083 | 152.70582 | 99 ft | 0 kts | 9° |
| 2026-04-30 11:56 | -27.63051 | 152.70592 | 99 ft | 9 kts | 38° |
| 2026-04-30 11:56 | -27.62999 | 152.70598 | 99 ft | 6 kts | 347° |
| 2026-04-30 11:56 | -27.62962 | 152.70634 | 98 ft | 7 kts | 55° |
| 2026-04-30 11:57 | -27.62905 | 152.70633 | 98 ft | 9 kts | 339° |
| 2026-04-30 11:57 | -27.62846 | 152.70607 | 98 ft | 9 kts | 336° |
| 2026-04-30 11:57 | -27.62762 | 152.70568 | 98 ft | 14 kts | 338° |
| 2026-04-30 11:57 | -27.62644 | 152.70516 | 98 ft | 19 kts | 339° |
| 2026-04-30 11:58 | -27.62477 | 152.70443 | 97 ft | 32 kts | 338° |
| 2026-04-30 11:58 | -27.62298 | 152.70363 | 95 ft | 9 kts | 336° |
| 2026-04-30 11:58 | -27.62226 | 152.70398 | 97 ft | 16 kts | 55° |
| 2026-04-30 11:58 | -27.62191 | 152.70518 | 99 ft | 15 kts | 107° |
| 2026-04-30 11:59 | -27.62357 | 152.70607 | 98 ft | 84 kts | 159° |
| 2026-04-30 11:59 | -27.63580 | 152.71136 | 354 ft | 289 kts | 159° |
| 2026-04-30 11:59 | -27.66039 | 152.71647 | 2526 ft | 410 kts | 184° |
| 2026-04-30 11:59 | -27.68347 | 152.69980 | 6072 ft | 429 kts | 237° |
| 2026-04-30 12:00 | -27.68770 | 152.67635 | 8131 ft | 425 kts | 271° |
| 2026-04-30 12:00 | -27.68320 | 152.64400 | 11312 ft | 441 kts | 279° |
| 2026-04-30 12:00 | -27.67721 | 152.60885 | 12909 ft | 466 kts | 281° |
| 2026-04-30 12:00 | -27.67060 | 152.57241 | 14687 ft | 488 kts | 281° |
| 2026-04-30 12:01 | -27.66399 | 152.53395 | 15953 ft | 506 kts | 280° |
| 2026-04-30 12:01 | -27.65729 | 152.49563 | 18408 ft | 494 kts | 281° |
| 2026-04-30 12:01 | -27.65054 | 152.45804 | 20721 ft | 482 kts | 281° |
| 2026-04-30 12:01 | -27.64393 | 152.42170 | 23218 ft | 466 kts | 281° |
| 2026-04-30 12:02 | -27.63743 | 152.38661 | 25571 ft | 449 kts | 281° |
| 2026-04-30 12:02 | -27.63073 | 152.35098 | 28002 ft | 477 kts | 281° |
| 2026-04-30 12:02 | -27.62365 | 152.31344 | 30619 ft | 501 kts | 281° |
| 2026-04-30 12:02 | -27.61625 | 152.27429 | 33058 ft | 518 kts | 281° |
| 2026-04-30 12:03 | -27.60869 | 152.23417 | 35493 ft | 527 kts | 281° |
| 2026-04-30 12:03 | -27.59374 | 152.15312 | 40347 ft | 524 kts | 281° |
| 2026-04-30 12:03 | -27.58667 | 152.11315 | 42279 ft | 528 kts | 281° |
| 2026-04-30 12:04 | -27.57898 | 152.07049 | 41473 ft | 581 kts | 282° |
| 2026-04-30 12:04 | -27.57050 | 152.02419 | 41393 ft | 625 kts | 282° |
| 2026-04-30 12:04 | -27.56174 | 151.97665 | 41392 ft | 613 kts | 282° |
| 2026-04-30 12:05 | -27.54464 | 151.88411 | 41378 ft | 594 kts | 282° |
| 2026-04-30 12:05 | -27.52804 | 151.79422 | 41375 ft | 580 kts | 282° |
| 2026-04-30 12:06 | -27.51173 | 151.70583 | 41372 ft | 571 kts | 282° |
| 2026-04-30 12:06 | -27.49827 | 151.61823 | 41361 ft | 565 kts | 277° |
| 2026-04-30 12:07 | -27.49018 | 151.53115 | 41354 ft | 561 kts | 276° |
| 2026-04-30 12:07 | -27.48280 | 151.44386 | 41343 ft | 558 kts | 276° |
| 2026-04-30 12:08 | -27.47563 | 151.35700 | 41338 ft | 557 kts | 275° |
| 2026-04-30 12:08 | -27.46854 | 151.27032 | 41335 ft | 555 kts | 275° |
| 2026-04-30 12:09 | -27.46149 | 151.18377 | 41340 ft | 554 kts | 275° |
| 2026-04-30 12:09 | -27.45798 | 151.14052 | 40857 ft | 558 kts | 275° |
| 2026-04-30 12:09 | -27.45447 | 151.09561 | 39143 ft | 591 kts | 275° |
| 2026-04-30 12:09 | -27.45104 | 151.04888 | 37293 ft | 610 kts | 274° |
| 2026-04-30 12:10 | -27.44750 | 151.00019 | 35096 ft | 638 kts | 274° |
| 2026-04-30 12:10 | -27.44382 | 150.95307 | 33212 ft | 569 kts | 275° |
| 2026-04-30 12:10 | -27.43999 | 150.91142 | 31977 ft | 500 kts | 276° |
| 2026-04-30 12:10 | -27.43741 | 150.88605 | 30994 ft | 475 kts | 276° |
| 2026-04-30 12:11 | -27.43308 | 150.84712 | 29943 ft | 524 kts | 276° |
| 2026-04-30 12:11 | -27.42814 | 150.80590 | 29630 ft | 548 kts | 277° |
| 2026-04-30 12:11 | -27.43125 | 150.81903 | 21540 ft | 685 kts | 101° |
| 2026-04-30 12:11 | -27.43626 | 150.87109 | 26339 ft | 675 kts | 95° |
| 2026-04-30 12:12 | -27.42659 | 150.92578 | 27594 ft | 740 kts | 73° |
| 2026-04-30 12:12 | -27.42007 | 150.97680 | 27384 ft | 603 kts | 89° |
| 2026-04-30 12:12 | -27.41969 | 151.02234 | 27352 ft | 567 kts | 90° |
| 2026-04-30 12:12 | -27.41935 | 151.06576 | 27246 ft | 537 kts | 89° |
| 2026-04-30 12:13 | -27.41886 | 151.10507 | 26981 ft | 475 kts | 90° |
| 2026-04-30 12:13 | -27.41847 | 151.14191 | 26757 ft | 492 kts | 90° |
| 2026-04-30 12:13 | -27.41838 | 151.18118 | 26440 ft | 496 kts | 91° |
| 2026-04-30 12:13 | -27.41747 | 151.21761 | 26076 ft | 461 kts | 90° |
| 2026-04-30 12:14 | -27.41718 | 151.25423 | 25476 ft | 476 kts | 90° |
| 2026-04-30 12:14 | -27.41683 | 151.29103 | 24748 ft | 470 kts | 90° |
| 2026-04-30 12:14 | -27.41641 | 151.32736 | 24158 ft | 450 kts | 90° |
| 2026-04-30 12:14 | -27.41582 | 151.36345 | 23658 ft | 476 kts | 90° |
| 2026-04-30 12:15 | -27.41537 | 151.39975 | 23159 ft | 445 kts | 90° |
| 2026-04-30 12:15 | -27.41478 | 151.43515 | 22666 ft | 459 kts | 90° |
| 2026-04-30 12:15 | -27.41420 | 151.47125 | 22164 ft | 461 kts | 90° |
| 2026-04-30 12:15 | -27.41376 | 151.50618 | 21671 ft | 449 kts | 90° |
| 2026-04-30 12:16 | -27.41334 | 151.54139 | 21169 ft | 447 kts | 90° |
| 2026-04-30 12:16 | -27.41293 | 151.57596 | 20684 ft | 439 kts | 90° |
| 2026-04-30 12:16 | -27.41250 | 151.61011 | 20184 ft | 434 kts | 90° |
| 2026-04-30 12:16 | -27.41324 | 151.64355 | 19557 ft | 427 kts | 95° |
| 2026-04-30 12:17 | -27.41452 | 151.70980 | 18490 ft | 422 kts | 89° |
| 2026-04-30 12:17 | -27.41309 | 151.74272 | 17966 ft | 413 kts | 88° |
| 2026-04-30 12:17 | -27.41197 | 151.77511 | 17447 ft | 405 kts | 89° |
| 2026-04-30 12:18 | -27.41120 | 151.80702 | 16890 ft | 415 kts | 91° |
| 2026-04-30 12:18 | -27.41112 | 151.83847 | 16335 ft | 396 kts | 90° |
| 2026-04-30 12:18 | -27.41127 | 151.86940 | 15766 ft | 396 kts | 90° |
| 2026-04-30 12:18 | -27.41126 | 151.89989 | 14986 ft | 386 kts | 90° |
| 2026-04-30 12:19 | -27.41133 | 151.92987 | 14078 ft | 394 kts | 90° |
| 2026-04-30 12:19 | -27.41136 | 151.96017 | 13382 ft | 396 kts | 90° |
| 2026-04-30 12:19 | -27.41139 | 151.98970 | 12758 ft | 373 kts | 90° |
| 2026-04-30 12:19 | -27.41182 | 152.01912 | 12143 ft | 375 kts | 91° |
| 2026-04-30 12:20 | -27.41189 | 152.04810 | 11511 ft | 368 kts | 90° |
| 2026-04-30 12:20 | -27.41182 | 152.07693 | 10969 ft | 359 kts | 90° |
| 2026-04-30 12:20 | -27.41170 | 152.10533 | 10864 ft | 353 kts | 89° |
| 2026-04-30 12:20 | -27.41160 | 152.13171 | 10645 ft | 336 kts | 90° |
| 2026-04-30 12:21 | -27.41135 | 152.15717 | 10510 ft | 318 kts | 89° |
| 2026-04-30 12:21 | -27.41101 | 152.18163 | 10387 ft | 301 kts | 88° |
| 2026-04-30 12:21 | -27.41013 | 152.20489 | 10231 ft | 288 kts | 87° |
| 2026-04-30 12:21 | -27.40944 | 152.22734 | 9831 ft | 285 kts | 88° |
| 2026-04-30 12:22 | -27.40901 | 152.24933 | 9393 ft | 279 kts | 89° |
| 2026-04-30 12:22 | -27.40887 | 152.27123 | 8958 ft | 277 kts | 90° |
| 2026-04-30 12:22 | -27.40884 | 152.29258 | 8520 ft | 269 kts | 91° |
| 2026-04-30 12:22 | -27.40886 | 152.31357 | 8104 ft | 260 kts | 91° |
| 2026-04-30 12:23 | -27.40881 | 152.33464 | 7664 ft | 266 kts | 91° |
| 2026-04-30 12:23 | -27.40879 | 152.35519 | 7234 ft | 258 kts | 91° |
| 2026-04-30 12:23 | -27.40876 | 152.37528 | 6802 ft | 258 kts | 91° |
| 2026-04-30 12:23 | -27.40875 | 152.39540 | 6439 ft | 255 kts | 92° |
| 2026-04-30 12:24 | -27.40868 | 152.41476 | 6121 ft | 238 kts | 92° |
| 2026-04-30 12:24 | -27.40866 | 152.43302 | 5839 ft | 228 kts | 92° |
| 2026-04-30 12:24 | -27.40863 | 152.45045 | 5575 ft | 222 kts | 92° |
| 2026-04-30 12:24 | -27.40854 | 152.46879 | 5314 ft | 249 kts | 91° |
| 2026-04-30 12:25 | -27.40848 | 152.48884 | 5175 ft | 262 kts | 91° |
| 2026-04-30 12:25 | -27.40839 | 152.50970 | 5122 ft | 259 kts | 92° |
| 2026-04-30 12:25 | -27.40831 | 152.52855 | 4962 ft | 250 kts | 95° |
| 2026-04-30 12:25 | -27.41325 | 152.54770 | 4568 ft | 235 kts | 108° |
| 2026-04-30 12:26 | -27.41875 | 152.56538 | 4434 ft | 236 kts | 112° |
| 2026-04-30 12:26 | -27.42511 | 152.58295 | 4125 ft | 236 kts | 111° |
| 2026-04-30 12:26 | -27.43069 | 152.60017 | 3706 ft | 238 kts | 111° |
| 2026-04-30 12:26 | -27.43744 | 152.61667 | 3646 ft | 240 kts | 122° |
| 2026-04-30 12:27 | -27.44987 | 152.62899 | 3512 ft | 234 kts | 144° |
| 2026-04-30 12:27 | -27.46477 | 152.63737 | 3372 ft | 240 kts | 153° |
| 2026-04-30 12:27 | -27.48041 | 152.64404 | 3077 ft | 229 kts | 157° |
| 2026-04-30 12:27 | -27.49548 | 152.65049 | 2778 ft | 229 kts | 156° |
| 2026-04-30 12:28 | -27.50952 | 152.65664 | 2497 ft | 209 kts | 156° |
| 2026-04-30 12:28 | -27.52350 | 152.66297 | 2202 ft | 211 kts | 157° |
| 2026-04-30 12:28 | -27.53638 | 152.66833 | 1903 ft | 190 kts | 157° |
| 2026-04-30 12:28 | -27.54795 | 152.67343 | 1698 ft | 167 kts | 157° |
| 2026-04-30 12:29 | -27.55846 | 152.67807 | 1478 ft | 156 kts | 157° |
| 2026-04-30 12:29 | -27.56770 | 152.68216 | 1246 ft | 128 kts | 159° |
| 2026-04-30 12:29 | -27.57677 | 152.68616 | 1064 ft | 159 kts | 159° |
| 2026-04-30 12:29 | -27.58601 | 152.69004 | 840 ft | 120 kts | 163° |
| 2026-04-30 12:30 | -27.59474 | 152.69321 | 731 ft | 141 kts | 162° |
| 2026-04-30 12:30 | -27.60322 | 152.69681 | 520 ft | 120 kts | 159° |
| 2026-04-30 12:30 | -27.61563 | 152.70213 | 398 ft | 315 kts | 160° |
| 2026-04-30 12:30 | -27.64109 | 152.71282 | 1265 ft | 350 kts | 160° |
| 2026-04-30 12:31 | -27.65295 | 152.69987 | 1735 ft | 263 kts | 281° |
| 2026-04-30 12:31 | -27.63921 | 152.68938 | 1492 ft | 234 kts | 338° |
| 2026-04-30 12:31 | -27.62484 | 152.68278 | 1337 ft | 215 kts | 338° |
| 2026-04-30 12:31 | -27.61243 | 152.68462 | 923 ft | 171 kts | 47° |
| 2026-04-30 12:32 | -27.60949 | 152.69549 | 596 ft | 129 kts | 105° |
| 2026-04-30 12:32 | -27.61501 | 152.70223 | 243 ft | 120 kts | 155° |
| 2026-04-30 12:32 | -27.62228 | 152.70552 | 120 ft | 108 kts | 159° |
| 2026-04-30 12:32 | -27.62899 | 152.70842 | 109 ft | 100 kts | 160° |
| 2026-04-30 12:33 | -27.63713 | 152.71188 | 377 ft | 198 kts | 160° |
| 2026-04-30 12:33 | -27.65598 | 152.71996 | 1728 ft | 314 kts | 166° |
| 2026-04-30 12:33 | -27.66072 | 152.70409 | 1771 ft | 258 kts | 309° |
| 2026-04-30 12:33 | -27.64557 | 152.69645 | 1709 ft | 227 kts | 339° |
| 2026-04-30 12:34 | -27.63171 | 152.69014 | 1456 ft | 205 kts | 338° |
| 2026-04-30 12:34 | -27.61917 | 152.68511 | 1142 ft | 171 kts | 357° |
| 2026-04-30 12:34 | -27.60992 | 152.68988 | 750 ft | 137 kts | 59° |
| 2026-04-30 12:34 | -27.61000 | 152.69940 | 489 ft | 123 kts | 132° |
| 2026-04-30 12:35 | -27.61724 | 152.70334 | 232 ft | 111 kts | 160° |
| 2026-04-30 12:35 | -27.62418 | 152.70637 | 105 ft | 103 kts | 160° |
| 2026-04-30 12:35 | -27.63050 | 152.70911 | 96 ft | 88 kts | 160° |
| 2026-04-30 12:35 | -27.63414 | 152.71063 | 94 ft | 1 kts | 211° |
| 2026-04-30 12:36 | -27.63396 | 152.70988 | 95 ft | 25 kts | 285° |
| 2026-04-30 12:36 | -27.63337 | 152.70826 | 97 ft | 19 kts | 333° |
| 2026-04-30 12:36 | -27.63218 | 152.70770 | 97 ft | 18 kts | 338° |
| 2026-04-30 12:36 | -27.63172 | 152.70704 | 98 ft | 10 kts | 248° |
| 2026-04-30 12:37 | -27.63124 | 152.70653 | 97 ft | 10 kts | 331° |
| 2026-04-30 12:37 | -27.63119 | 152.70591 | 99 ft | 7 kts | 269° |
| 2026-04-30 12:37 | -27.63084 | 152.70582 | 99 ft | 5 kts | 9° |
| 2026-04-30 12:37 | -27.63083 | 152.70583 | 99 ft | 0 kts | 9° |